createdAt,value
2024-03-14T00:00:17.114Z,35.20
2024-03-14T00:01:17.121Z,35.50
2024-03-14T00:02:17.135Z,35.80
2024-03-14T00:03:17.164Z,35.10
2024-03-14T00:04:17.088Z,36.00
2024-03-14T00:05:17.215Z,34.00
2024-03-14T00:06:17.092Z,36.30
2024-03-14T00:07:17.059Z,34.80
2024-03-14T00:08:17.032Z,34.30
2024-03-14T00:09:17.073Z,35.10
2024-03-14T00:10:17.019Z,35.30
2024-03-14T00:11:17.105Z,33.90
2024-03-14T00:12:17.030Z,34.60
2024-03-14T00:13:16.979Z,35.10
2024-03-14T00:14:16.972Z,36.00
2024-03-14T00:15:17.106Z,35.20
2024-03-14T00:16:16.988Z,34.80
2024-03-14T00:17:17.799Z,34.60
2024-03-14T00:18:16.949Z,34.50
2024-03-14T00:19:16.939Z,35.90
2024-03-14T00:20:16.913Z,35.80
2024-03-14T00:21:16.938Z,36.10
2024-03-14T00:22:16.890Z,35.80
2024-03-14T00:23:16.902Z,37.30
2024-03-14T00:24:16.912Z,35.80
2024-03-14T00:25:16.860Z,35.20
2024-03-14T00:26:16.895Z,35.10
2024-03-14T00:27:16.856Z,35.50
2024-03-14T00:28:16.834Z,35.20
2024-03-14T00:29:16.848Z,35.20
2024-03-14T00:30:17.101Z,34.80
2024-03-14T00:31:16.812Z,37.50
2024-03-14T00:32:16.797Z,35.00
2024-03-14T00:33:16.866Z,35.20
2024-03-14T00:34:16.770Z,36.20
2024-03-14T00:35:16.786Z,36.90
2024-03-14T00:36:16.846Z,36.40
2024-03-14T00:37:16.756Z,34.50
2024-03-14T00:38:16.790Z,34.50
2024-03-14T00:39:16.793Z,36.40
2024-03-14T00:40:16.732Z,34.40
2024-03-14T00:41:16.698Z,37.60
2024-03-14T00:42:16.801Z,35.80
2024-03-14T00:43:16.727Z,37.40
2024-03-14T00:44:16.708Z,39.90
2024-03-14T00:45:17.038Z,35.80
2024-03-14T00:46:16.649Z,38.80
2024-03-14T00:47:16.659Z,39.30
2024-03-14T00:48:16.798Z,39.10
2024-03-14T00:49:16.648Z,39.60
2024-03-14T00:50:16.654Z,37.30
2024-03-14T00:51:16.661Z,38.50
2024-03-14T00:52:16.710Z,39.10
2024-03-14T00:53:16.671Z,39.70
2024-03-14T00:54:16.757Z,38.60
2024-03-14T00:55:16.623Z,37.70
2024-03-14T00:56:16.565Z,38.40
2024-03-14T00:57:17.572Z,38.30
2024-03-14T00:58:16.602Z,42.00
2024-03-14T00:59:16.546Z,42.50
2024-03-14T01:00:16.610Z,40.20
2024-03-14T01:01:16.584Z,40.50
2024-03-14T01:02:16.505Z,42.40
2024-03-14T01:03:17.411Z,41.50
2024-03-14T01:04:16.491Z,41.40
2024-03-14T01:05:16.506Z,41.60
2024-03-14T01:06:16.508Z,40.10
2024-03-14T01:07:16.464Z,40.40
2024-03-14T01:08:16.484Z,43.40
2024-03-14T01:09:16.587Z,40.80
2024-03-14T01:10:16.409Z,41.20
2024-03-14T01:11:16.447Z,40.50
2024-03-14T01:12:16.423Z,40.30
2024-03-14T01:13:16.412Z,41.60
2024-03-14T01:14:16.384Z,39.10
2024-03-14T01:15:16.396Z,39.60
2024-03-14T01:16:16.363Z,39.90
2024-03-14T01:17:16.387Z,40.00
2024-03-14T01:18:16.528Z,42.00
2024-03-14T01:19:16.314Z,42.10
2024-03-14T01:20:16.340Z,40.80
2024-03-14T01:21:16.299Z,41.00
2024-03-14T01:22:16.365Z,41.70
2024-03-14T01:23:16.290Z,42.70
2024-03-14T01:24:16.304Z,40.80
2024-03-14T01:25:16.282Z,42.10
2024-03-14T01:26:16.268Z,42.90
2024-03-14T01:27:16.380Z,40.40
2024-03-14T01:28:16.231Z,40.50
2024-03-14T01:29:16.247Z,42.50
2024-03-14T01:30:16.270Z,39.80
2024-03-14T01:31:16.222Z,42.10
2024-03-14T01:32:16.223Z,42.10
2024-03-14T01:33:16.241Z,38.00
2024-03-14T01:34:16.180Z,40.80
2024-03-14T01:35:16.165Z,40.10
2024-03-14T01:36:16.353Z,41.60
2024-03-14T01:37:16.150Z,39.70
2024-03-14T01:38:16.120Z,40.70
2024-03-14T01:39:16.192Z,38.60
2024-03-14T01:40:16.138Z,41.70
2024-03-14T01:41:16.117Z,38.30
2024-03-14T01:42:16.122Z,38.00
2024-03-14T01:43:16.079Z,42.50
2024-03-14T01:44:16.074Z,40.90
2024-03-14T01:45:16.488Z,43.10
2024-03-14T01:46:16.053Z,41.10
2024-03-14T01:47:16.040Z,44.00
2024-03-14T01:48:16.242Z,40.70
2024-03-14T01:49:16.091Z,43.50
2024-03-14T01:50:16.048Z,43.10
2024-03-14T01:51:16.009Z,39.70
2024-03-14T01:52:15.990Z,39.80
2024-03-14T01:53:15.981Z,38.00
2024-03-14T01:54:16.003Z,39.80
2024-03-14T01:55:15.995Z,41.60
2024-03-14T01:56:15.945Z,41.90
2024-03-14T01:57:16.006Z,38.90
2024-03-14T01:58:16.925Z,42.90
2024-03-14T01:59:15.936Z,43.30
2024-03-14T02:00:16.111Z,42.40
2024-03-14T02:01:15.916Z,40.90
2024-03-14T02:02:15.883Z,43.10
2024-03-14T02:03:15.910Z,40.70
2024-03-14T02:04:15.888Z,40.80
2024-03-14T02:05:15.857Z,39.90
2024-03-14T02:06:15.902Z,39.50
2024-03-14T02:07:15.855Z,43.60
2024-03-14T02:08:15.809Z,41.80
2024-03-14T02:09:16.840Z,41.80
2024-03-14T02:10:15.944Z,42.00
2024-03-14T02:11:15.807Z,42.60
2024-03-14T02:12:15.798Z,40.00
2024-03-14T02:13:15.788Z,40.50
2024-03-14T02:14:15.777Z,41.90
2024-03-14T02:15:15.755Z,41.80
2024-03-14T02:16:15.732Z,42.30
2024-03-14T02:17:15.736Z,40.70
2024-03-14T02:18:15.856Z,42.90
2024-03-14T02:19:15.723Z,41.60
2024-03-14T02:20:15.936Z,41.60
2024-03-14T02:21:16.705Z,41.80
2024-03-14T02:22:15.693Z,41.20
2024-03-14T02:23:15.713Z,39.60
2024-03-14T02:24:15.668Z,42.70
2024-03-14T02:25:15.652Z,39.50
2024-03-14T02:26:15.645Z,40.20
2024-03-14T02:27:16.690Z,40.50
2024-03-14T02:28:15.643Z,38.80
2024-03-14T02:29:15.606Z,41.70
2024-03-14T02:30:15.630Z,38.20
2024-03-14T02:31:15.589Z,38.90
2024-03-14T02:32:15.580Z,38.70
2024-03-14T02:33:15.602Z,38.50
2024-03-14T02:34:15.561Z,38.40
2024-03-14T02:35:15.586Z,40.10
2024-03-14T02:36:15.582Z,38.90
2024-03-14T02:37:15.538Z,39.70
2024-03-14T02:38:15.525Z,41.00
2024-03-14T02:39:15.699Z,40.40
2024-03-14T02:40:15.493Z,40.10
2024-03-14T02:41:15.501Z,38.60
2024-03-14T02:42:15.526Z,38.10
2024-03-14T02:43:15.470Z,37.30
2024-03-14T02:44:15.456Z,40.20
2024-03-14T02:45:15.492Z,43.60
2024-03-14T02:46:15.924Z,40.50
2024-03-14T02:47:15.454Z,40.50
2024-03-14T02:48:15.451Z,41.80
2024-03-14T02:49:15.424Z,41.70
2024-03-14T02:50:15.949Z,42.30
2024-03-14T02:51:15.443Z,42.40
2024-03-14T02:52:15.369Z,42.10
2024-03-14T02:53:15.370Z,42.10
2024-03-14T02:54:15.368Z,44.30
2024-03-14T02:55:15.378Z,39.60
2024-03-14T02:56:15.348Z,43.80
2024-03-14T02:57:15.342Z,45.90
2024-03-14T02:58:15.306Z,41.80
2024-03-14T02:59:15.312Z,45.10
2024-03-14T03:00:15.367Z,44.40
2024-03-14T03:01:15.308Z,45.50
2024-03-14T03:02:15.283Z,44.80
2024-03-14T03:03:15.255Z,44.50
2024-03-14T03:04:15.250Z,44.30
2024-03-14T03:05:15.273Z,43.70
2024-03-14T03:06:15.258Z,45.30
2024-03-14T03:07:15.216Z,46.80
2024-03-14T03:08:15.211Z,46.30
2024-03-14T03:09:15.232Z,43.60
2024-03-14T03:10:15.217Z,45.30
2024-03-14T03:11:15.178Z,43.40
2024-03-14T03:12:15.203Z,44.70
2024-03-14T03:13:15.147Z,43.40
2024-03-14T03:14:15.188Z,48.80
2024-03-14T03:15:15.148Z,46.30
2024-03-14T03:16:15.300Z,48.00
2024-03-14T03:17:15.114Z,47.50
2024-03-14T03:18:15.167Z,45.10
2024-03-14T03:19:15.108Z,43.90
2024-03-14T03:20:15.083Z,45.80
2024-03-14T03:21:15.082Z,45.60
2024-03-14T03:22:15.076Z,47.10
2024-03-14T03:23:15.086Z,47.30
2024-03-14T03:24:15.087Z,48.70
2024-03-14T03:25:15.021Z,49.80
2024-03-14T03:26:15.019Z,46.00
2024-03-14T03:27:15.489Z,44.30
2024-03-14T03:28:15.036Z,45.50
2024-03-14T03:29:14.979Z,45.70
2024-03-14T03:30:15.000Z,46.10
2024-03-14T03:31:14.966Z,44.80
2024-03-14T03:32:14.965Z,46.10
2024-03-14T03:33:16.044Z,44.00
2024-03-14T03:34:14.941Z,45.70
2024-03-14T03:35:14.929Z,44.60
2024-03-14T03:36:14.960Z,46.50
2024-03-14T03:37:14.905Z,46.60
2024-03-14T03:38:14.921Z,44.80
2024-03-14T03:39:14.946Z,45.10
2024-03-14T03:40:14.880Z,45.70
2024-03-14T03:41:14.876Z,45.60
2024-03-14T03:42:14.892Z,45.50
2024-03-14T03:43:14.867Z,48.30
2024-03-14T03:44:14.833Z,47.70
2024-03-14T03:45:14.857Z,48.50
2024-03-14T03:46:14.866Z,46.20
2024-03-14T03:47:14.836Z,44.00
2024-03-14T03:48:14.861Z,44.40
2024-03-14T03:49:14.786Z,46.00
2024-03-14T03:50:14.776Z,46.60
2024-03-14T03:51:14.825Z,46.10
2024-03-14T03:52:14.783Z,46.50
2024-03-14T03:53:14.744Z,46.30
2024-03-14T03:54:14.792Z,48.30
2024-03-14T03:55:14.743Z,47.80
2024-03-14T03:56:14.741Z,48.00
2024-03-14T03:57:14.774Z,47.90
2024-03-14T03:58:14.700Z,45.30
2024-03-14T03:59:14.685Z,45.80
2024-03-14T04:00:14.699Z,45.50
2024-03-14T04:01:14.938Z,47.10
2024-03-14T04:02:14.649Z,48.00
2024-03-14T04:03:14.690Z,45.40
2024-03-14T04:04:14.649Z,45.60
2024-03-14T04:05:14.626Z,46.10
2024-03-14T04:06:14.649Z,46.00
2024-03-14T04:07:14.604Z,44.50
2024-03-14T04:08:14.600Z,46.40
2024-03-14T04:09:14.604Z,45.30
2024-03-14T04:10:14.572Z,45.00
2024-03-14T04:11:14.690Z,46.50
2024-03-14T04:12:14.586Z,46.10
2024-03-14T04:13:14.569Z,44.80
2024-03-14T04:14:14.524Z,45.40
2024-03-14T04:15:14.553Z,44.50
2024-03-14T04:16:14.521Z,44.40
2024-03-14T04:17:14.493Z,47.60
2024-03-14T04:18:14.588Z,45.80
2024-03-14T04:19:14.485Z,45.50
2024-03-14T04:20:14.487Z,45.30
2024-03-14T04:21:14.511Z,45.60
2024-03-14T04:22:14.448Z,45.10
2024-03-14T04:23:14.454Z,46.90
2024-03-14T04:24:14.443Z,48.50
2024-03-14T04:25:14.465Z,46.70
2024-03-14T04:26:14.415Z,46.80
2024-03-14T04:27:14.444Z,45.90
2024-03-14T04:28:14.412Z,46.30
2024-03-14T04:29:14.375Z,44.90
2024-03-14T04:30:14.399Z,46.30
2024-03-14T04:31:14.380Z,45.30
2024-03-14T04:32:14.364Z,47.20
2024-03-14T04:33:14.436Z,47.00
2024-03-14T04:34:14.444Z,46.60
2024-03-14T04:35:14.334Z,47.00
2024-03-14T04:36:14.357Z,47.20
2024-03-14T04:37:14.292Z,49.70
2024-03-14T04:38:14.284Z,47.50
2024-03-14T04:39:14.338Z,48.80
2024-03-14T04:40:14.258Z,47.90
2024-03-14T04:41:14.246Z,49.00
2024-03-14T04:42:14.255Z,49.50
2024-03-14T04:43:14.226Z,48.60
2024-03-14T04:44:14.248Z,47.00
2024-03-14T04:45:14.443Z,49.70
2024-03-14T04:46:14.205Z,47.60
2024-03-14T04:47:14.184Z,47.60
2024-03-14T04:48:14.231Z,46.90
2024-03-14T04:49:14.182Z,49.70
2024-03-14T04:50:14.153Z,47.30
2024-03-14T04:51:14.349Z,47.30
2024-03-14T04:52:14.137Z,47.60
2024-03-14T04:53:14.134Z,46.70
2024-03-14T04:54:14.182Z,46.80
2024-03-14T04:55:14.101Z,48.30
2024-03-14T04:56:14.081Z,46.60
2024-03-14T04:57:14.083Z,47.30
2024-03-14T04:58:14.098Z,47.20
2024-03-14T04:59:14.061Z,45.30
2024-03-14T05:00:14.069Z,46.10
2024-03-14T05:01:14.078Z,46.00
2024-03-14T05:02:14.034Z,45.80
2024-03-14T05:03:14.075Z,45.00
2024-03-14T05:04:14.008Z,46.90
2024-03-14T05:05:14.000Z,46.60
2024-03-14T05:06:14.017Z,45.80
2024-03-14T05:07:13.990Z,45.70
2024-03-14T05:08:13.989Z,45.30
2024-03-14T05:09:13.971Z,46.10
2024-03-14T05:10:13.945Z,46.20
2024-03-14T05:11:13.954Z,45.10
2024-03-14T05:12:13.972Z,45.10
2024-03-14T05:13:13.938Z,44.50
2024-03-14T05:14:13.927Z,45.30
2024-03-14T05:15:13.948Z,44.90
2024-03-14T05:16:13.897Z,44.70
2024-03-14T05:17:13.934Z,44.60
2024-03-14T05:18:14.161Z,44.80
2024-03-14T05:19:14.084Z,45.60
2024-03-14T05:20:13.888Z,43.70
2024-03-14T05:21:13.855Z,44.30
2024-03-14T05:22:13.858Z,43.50
2024-03-14T05:23:13.827Z,44.20
2024-03-14T05:24:13.869Z,44.00
2024-03-14T05:25:14.638Z,42.20
2024-03-14T05:26:13.915Z,44.70
2024-03-14T05:27:13.899Z,44.70
2024-03-14T05:28:13.918Z,43.60
2024-03-14T05:29:13.834Z,42.40
2024-03-14T05:30:13.843Z,42.90
2024-03-14T05:31:13.746Z,44.20
2024-03-14T05:32:13.802Z,43.90
2024-03-14T05:33:13.948Z,44.10
2024-03-14T05:34:13.737Z,42.40
2024-03-14T05:35:13.690Z,42.50
2024-03-14T05:36:13.728Z,42.40
2024-03-14T05:37:13.797Z,42.10
2024-03-14T05:38:13.714Z,41.90
2024-03-14T05:39:13.722Z,43.30
2024-03-14T05:40:13.930Z,40.50
2024-03-14T05:41:13.779Z,42.00
2024-03-14T05:42:13.747Z,42.00
2024-03-14T05:43:39.646Z,41.50
2024-03-14T05:44:13.627Z,41.90
2024-03-14T05:45:13.717Z,41.60
2024-03-14T05:46:13.612Z,41.20
2024-03-14T05:47:13.574Z,41.20
2024-03-14T05:48:14.703Z,42.00
2024-03-14T05:49:13.557Z,40.90
2024-03-14T05:50:13.582Z,39.90
2024-03-14T05:51:13.539Z,40.30
2024-03-14T05:52:13.537Z,39.20
2024-03-14T05:53:13.527Z,39.40
2024-03-14T05:54:13.550Z,39.90
2024-03-14T05:55:13.508Z,39.20
2024-03-14T05:56:13.486Z,38.80
2024-03-14T05:57:13.572Z,38.40
2024-03-14T05:58:13.463Z,39.50
2024-03-14T05:59:13.501Z,39.20
2024-03-14T06:00:14.122Z,38.90
2024-03-14T06:01:13.496Z,38.60
2024-03-14T06:02:13.480Z,37.80
2024-03-14T06:03:13.452Z,36.90
2024-03-14T06:04:13.426Z,37.40
2024-03-14T06:05:13.396Z,37.80
2024-03-14T06:06:13.486Z,37.60
2024-03-14T06:07:13.378Z,37.40
2024-03-14T06:08:13.365Z,37.60
2024-03-14T06:09:13.407Z,37.10
2024-03-14T06:10:13.880Z,37.10
2024-03-14T06:11:13.396Z,36.50
2024-03-14T06:12:13.362Z,36.90
2024-03-14T06:13:13.336Z,36.80
2024-03-14T06:14:13.324Z,37.80
2024-03-14T06:15:13.333Z,36.90
2024-03-14T06:16:13.286Z,36.30
2024-03-14T06:17:13.281Z,37.10
2024-03-14T06:18:13.380Z,36.50
2024-03-14T06:19:13.257Z,37.10
2024-03-14T06:20:13.331Z,36.30
2024-03-14T06:21:13.282Z,35.90
2024-03-14T06:22:13.228Z,35.80
2024-03-14T06:23:13.236Z,36.00
2024-03-14T06:24:13.295Z,35.70
2024-03-14T06:25:13.217Z,37.50
2024-03-14T06:26:13.201Z,36.70
2024-03-14T06:27:13.268Z,36.30
2024-03-14T06:28:13.182Z,36.90
2024-03-14T06:29:13.181Z,36.80
2024-03-14T06:30:15.770Z,36.60
2024-03-14T06:31:13.135Z,36.40
2024-03-14T06:32:13.192Z,36.00
2024-03-14T06:33:13.189Z,36.70
2024-03-14T06:34:13.107Z,37.40
2024-03-14T06:35:13.120Z,36.60
2024-03-14T06:36:13.128Z,38.20
2024-03-14T06:37:13.115Z,37.00
2024-03-14T06:38:13.067Z,37.10
2024-03-14T06:39:13.217Z,35.80
2024-03-14T06:40:13.042Z,36.70
2024-03-14T06:41:13.060Z,36.60
2024-03-14T06:42:13.156Z,35.90
2024-03-14T06:43:13.020Z,35.70
2024-03-14T06:44:13.010Z,36.30
2024-03-14T06:45:13.069Z,35.80
2024-03-14T06:46:13.028Z,35.70
2024-03-14T06:47:12.984Z,35.70
2024-03-14T06:48:13.033Z,35.80
2024-03-14T06:49:14.037Z,33.90
2024-03-14T06:50:12.960Z,34.80
2024-03-14T06:51:12.987Z,35.20
2024-03-14T06:52:12.971Z,34.80
2024-03-14T06:53:12.918Z,34.60
2024-03-14T06:54:12.938Z,34.50
2024-03-14T06:55:12.914Z,34.60
2024-03-14T06:56:12.899Z,35.30
2024-03-14T06:57:12.950Z,34.20
2024-03-14T06:58:12.869Z,33.30
2024-03-14T06:59:12.869Z,33.50
2024-03-14T07:00:13.000Z,32.50
2024-03-14T07:01:12.890Z,33.10
2024-03-14T07:02:12.861Z,32.40
2024-03-14T07:03:12.850Z,32.00
2024-03-14T07:04:12.820Z,31.80
2024-03-14T07:05:12.817Z,32.70
2024-03-14T07:06:12.835Z,31.00
2024-03-14T07:07:12.795Z,31.20
2024-03-14T07:08:12.764Z,32.00
2024-03-14T07:09:12.799Z,31.90
2024-03-14T07:10:12.763Z,32.00
2024-03-14T07:11:12.760Z,30.20
2024-03-14T07:12:12.772Z,32.10
2024-03-14T07:13:13.730Z,31.10
2024-03-14T07:14:12.784Z,30.00
2024-03-14T07:15:12.736Z,30.10
2024-03-14T07:16:12.676Z,29.70
2024-03-14T07:17:12.670Z,30.10
2024-03-14T07:18:13.788Z,30.10
2024-03-14T07:19:12.746Z,29.80
2024-03-14T07:20:12.642Z,29.80
2024-03-14T07:21:12.645Z,30.40
2024-03-14T07:22:12.618Z,29.90
2024-03-14T07:23:12.606Z,30.90
2024-03-14T07:24:12.671Z,29.50
2024-03-14T07:25:12.591Z,29.50
2024-03-14T07:26:12.595Z,30.60
2024-03-14T07:27:12.619Z,29.70
2024-03-14T07:28:12.574Z,29.80
2024-03-14T07:29:12.573Z,29.30
2024-03-14T07:30:12.625Z,30.40
2024-03-14T07:31:12.528Z,29.90
2024-03-14T07:32:12.518Z,30.20
2024-03-14T07:33:12.636Z,29.60
2024-03-14T07:34:12.575Z,29.50
2024-03-14T07:35:15.704Z,30.20
2024-03-14T07:36:13.507Z,29.50
2024-03-14T07:37:12.471Z,29.70
2024-03-14T07:38:12.486Z,29.30
2024-03-14T07:39:12.607Z,29.20
2024-03-14T07:40:12.441Z,29.30
2024-03-14T07:41:12.433Z,30.20
2024-03-14T07:42:12.561Z,29.00
2024-03-14T07:43:12.448Z,27.60
2024-03-14T07:44:21.319Z,28.50
2024-03-14T07:45:14.498Z,27.00
2024-03-14T07:46:12.383Z,29.30
2024-03-14T07:47:12.424Z,27.90
2024-03-14T07:48:12.399Z,28.00
2024-03-14T07:49:12.360Z,27.40
2024-03-14T07:50:12.340Z,26.70
2024-03-14T07:51:12.361Z,26.80
2024-03-14T07:52:12.388Z,27.70
2024-03-14T07:53:12.330Z,26.70
2024-03-14T07:54:12.348Z,26.60
2024-03-14T07:55:12.285Z,27.40
2024-03-14T07:56:12.396Z,26.60
2024-03-14T07:57:12.319Z,27.50
2024-03-14T07:58:12.271Z,27.90
2024-03-14T07:59:12.290Z,27.50
2024-03-14T08:00:12.268Z,27.00
2024-03-14T08:01:12.297Z,26.50
2024-03-14T08:02:12.239Z,26.60
2024-03-14T08:03:12.237Z,25.80
2024-03-14T08:04:12.189Z,25.20
2024-03-14T08:05:12.203Z,25.30
2024-03-14T08:06:12.239Z,25.60
2024-03-14T08:07:12.166Z,25.10
2024-03-14T08:08:19.774Z,25.00
2024-03-14T08:09:14.205Z,25.00
2024-03-14T08:10:12.134Z,24.90
2024-03-14T08:11:12.139Z,25.40
2024-03-14T08:12:12.225Z,24.80
2024-03-14T08:13:12.109Z,24.30
2024-03-14T08:14:12.092Z,24.50
2024-03-14T08:15:12.135Z,24.70
2024-03-14T08:16:12.088Z,24.20
2024-03-14T08:17:12.098Z,24.20
2024-03-14T08:18:12.079Z,23.00
2024-03-14T08:19:12.046Z,23.20
2024-03-14T08:20:12.100Z,23.60
2024-03-14T08:21:12.051Z,23.90
2024-03-14T08:22:12.041Z,24.70
2024-03-14T08:23:12.006Z,25.00
2024-03-14T08:24:12.020Z,23.60
2024-03-14T08:25:12.025Z,24.00
2024-03-14T08:26:11.974Z,22.50
2024-03-14T08:27:13.014Z,22.10
2024-03-14T08:28:11.949Z,20.90
2024-03-14T08:29:11.996Z,21.50
2024-03-14T08:30:12.097Z,21.50
2024-03-14T08:31:11.921Z,20.10
2024-03-14T08:32:11.955Z,20.10
2024-03-14T08:33:11.972Z,19.70
2024-03-14T08:34:12.986Z,20.50
2024-03-14T08:35:11.974Z,19.50
2024-03-14T08:36:11.903Z,20.10
2024-03-14T08:37:11.869Z,19.80
2024-03-14T08:38:11.865Z,19.90
2024-03-14T08:39:11.914Z,19.60
2024-03-14T08:40:11.932Z,19.70
2024-03-14T08:41:11.833Z,20.00
2024-03-14T08:42:11.900Z,20.00
2024-03-14T08:43:11.807Z,19.40
2024-03-14T08:44:11.837Z,19.80
2024-03-14T08:45:11.822Z,19.80
2024-03-14T08:46:11.771Z,19.30
2024-03-14T08:47:11.766Z,19.40
2024-03-14T08:48:11.815Z,19.30
2024-03-14T08:49:11.841Z,19.20
2024-03-14T08:50:11.745Z,19.20
2024-03-14T08:51:11.749Z,19.30
2024-03-14T08:52:11.753Z,19.40
2024-03-14T08:53:11.865Z,19.50
2024-03-14T08:54:11.723Z,18.60
2024-03-14T08:55:11.678Z,18.80
2024-03-14T08:56:11.659Z,18.50
2024-03-14T08:57:11.670Z,18.40
2024-03-14T08:58:11.666Z,18.60
2024-03-14T08:59:11.632Z,18.40
2024-03-14T09:00:11.661Z,17.40
2024-03-14T09:01:11.661Z,18.20
2024-03-14T09:02:11.637Z,17.80
2024-03-14T09:03:11.710Z,17.50
2024-03-14T09:04:11.907Z,17.40
2024-03-14T09:05:11.585Z,17.30
2024-03-14T09:06:11.603Z,16.90
2024-03-14T09:07:11.592Z,16.80
2024-03-14T09:08:11.560Z,15.90
2024-03-14T09:09:11.592Z,15.90
2024-03-14T09:10:11.528Z,16.30
2024-03-14T09:11:11.534Z,16.70
2024-03-14T09:12:12.649Z,16.60
2024-03-14T09:13:11.560Z,16.40
2024-03-14T09:14:11.494Z,16.40
2024-03-14T09:15:11.509Z,15.90
2024-03-14T09:16:11.476Z,16.10
2024-03-14T09:17:11.480Z,16.30
2024-03-14T09:18:11.599Z,15.60
2024-03-14T09:19:11.485Z,16.00
2024-03-14T09:20:11.463Z,15.80
2024-03-14T09:21:11.512Z,15.50
2024-03-14T09:22:11.507Z,14.50
2024-03-14T09:23:11.397Z,14.60
2024-03-14T09:24:11.424Z,14.80
2024-03-14T09:25:11.376Z,13.80
2024-03-14T09:26:11.392Z,14.10
2024-03-14T09:27:11.360Z,14.00
2024-03-14T09:28:11.348Z,14.20
2024-03-14T09:29:11.351Z,13.90
2024-03-14T09:30:11.369Z,13.60
2024-03-14T09:31:11.344Z,14.20
2024-03-14T09:32:11.336Z,14.40
2024-03-14T09:33:11.359Z,13.80
2024-03-14T09:34:12.259Z,13.70
2024-03-14T09:35:11.277Z,13.90
2024-03-14T09:36:11.368Z,13.40
2024-03-14T09:37:11.309Z,12.20
2024-03-14T09:38:11.243Z,11.90
2024-03-14T09:39:11.304Z,12.60
2024-03-14T09:40:11.252Z,12.90
2024-03-14T09:41:18.326Z,12.90
2024-03-14T09:42:12.266Z,13.30
2024-03-14T09:43:11.189Z,12.50
2024-03-14T09:44:12.221Z,12.60
2024-03-14T09:45:11.229Z,12.70
2024-03-14T09:46:11.180Z,12.50
2024-03-14T09:47:11.162Z,12.10
2024-03-14T09:48:11.229Z,11.80
2024-03-14T09:49:11.143Z,11.90
2024-03-14T09:50:11.142Z,11.60
2024-03-14T09:51:11.301Z,12.00
2024-03-14T09:52:11.102Z,11.50
2024-03-14T09:53:11.106Z,12.30
2024-03-14T09:54:11.143Z,12.80
2024-03-14T09:55:11.099Z,12.20
2024-03-14T09:56:11.066Z,11.60
2024-03-14T09:57:11.170Z,11.50
2024-03-14T09:58:11.054Z,12.30
2024-03-14T09:59:11.059Z,11.30
2024-03-14T10:00:11.049Z,11.40
2024-03-14T10:01:11.232Z,11.70
2024-03-14T10:02:11.007Z,11.60
2024-03-14T10:03:11.016Z,12.00
2024-03-14T10:04:13.510Z,11.90
2024-03-14T10:05:11.984Z,12.20
2024-03-14T10:06:10.988Z,12.00
2024-03-14T10:07:11.055Z,11.60
2024-03-14T10:08:10.985Z,11.50
2024-03-14T10:09:17.484Z,11.40
2024-03-14T10:10:13.063Z,11.80
2024-03-14T10:11:10.966Z,12.10
2024-03-14T10:12:11.112Z,11.40
2024-03-14T10:13:10.977Z,12.20
2024-03-14T10:14:10.889Z,11.70
2024-03-14T10:15:10.883Z,12.20
2024-03-14T10:16:10.873Z,12.20
2024-03-14T10:17:10.878Z,11.50
2024-03-14T10:18:11.058Z,11.70
2024-03-14T10:19:10.882Z,11.60
2024-03-14T10:20:10.833Z,11.40
2024-03-14T10:21:10.830Z,11.80
2024-03-14T10:22:10.826Z,11.50
2024-03-14T10:23:10.814Z,11.30
2024-03-14T10:24:10.810Z,11.70
2024-03-14T10:25:10.787Z,11.00
2024-03-14T10:26:11.072Z,10.90
2024-03-14T10:27:10.816Z,11.70
2024-03-14T10:28:11.584Z,10.80
2024-03-14T10:29:10.745Z,11.20
2024-03-14T10:30:10.769Z,10.80
2024-03-14T10:31:10.748Z,10.70
2024-03-14T10:32:10.734Z,11.00
2024-03-14T10:33:12.109Z,10.70
2024-03-14T10:34:10.742Z,11.10
2024-03-14T10:35:10.676Z,11.50
2024-03-14T10:36:10.772Z,11.00
2024-03-14T10:37:10.676Z,10.60
2024-03-14T10:38:10.638Z,11.10
2024-03-14T10:39:10.688Z,11.10
2024-03-14T10:40:10.657Z,11.30
2024-03-14T10:41:11.808Z,11.10
2024-03-14T10:42:10.696Z,11.30
2024-03-14T10:43:10.592Z,11.00
2024-03-14T10:44:10.605Z,11.00
2024-03-14T10:45:10.586Z,10.30
2024-03-14T10:46:10.581Z,9.90
2024-03-14T10:47:10.605Z,10.60
2024-03-14T10:48:10.656Z,10.30
2024-03-14T10:49:10.579Z,10.10
2024-03-14T10:50:10.561Z,10.00
2024-03-14T10:51:10.540Z,9.10
2024-03-14T10:52:10.501Z,8.50
2024-03-14T10:53:10.491Z,8.80
2024-03-14T10:54:10.508Z,8.60
2024-03-14T10:55:10.494Z,8.20
2024-03-14T10:56:10.490Z,8.30
2024-03-14T10:57:10.469Z,9.00
2024-03-14T10:58:10.436Z,8.90
2024-03-14T10:59:10.439Z,8.60
2024-03-14T11:00:10.462Z,8.70
2024-03-14T11:01:10.504Z,8.70
2024-03-14T11:02:10.401Z,7.90
2024-03-14T11:03:10.435Z,7.30
2024-03-14T11:04:11.299Z,7.70
2024-03-14T11:05:10.388Z,7.80
2024-03-14T11:06:10.403Z,7.20
2024-03-14T11:07:10.351Z,7.20
2024-03-14T11:08:10.335Z,7.20
2024-03-14T11:09:10.392Z,7.00
2024-03-14T11:10:10.340Z,7.40
2024-03-14T11:11:10.329Z,7.40
2024-03-14T11:12:10.316Z,7.40
2024-03-14T11:13:10.288Z,7.70
2024-03-14T11:14:10.301Z,7.90
2024-03-14T11:15:10.312Z,7.50
2024-03-14T11:16:10.256Z,7.60
2024-03-14T11:17:10.246Z,7.90
2024-03-14T11:18:10.288Z,7.80
2024-03-14T11:19:10.259Z,7.10
2024-03-14T11:20:10.212Z,7.70
2024-03-14T11:21:10.209Z,7.50
2024-03-14T11:22:10.209Z,7.80
2024-03-14T11:23:10.181Z,7.60
2024-03-14T11:24:10.234Z,7.90
2024-03-14T11:25:10.165Z,7.70
2024-03-14T11:26:10.150Z,7.20
2024-03-14T11:27:10.197Z,7.80
2024-03-14T11:28:10.156Z,7.60
2024-03-14T11:29:10.152Z,7.60
2024-03-14T11:30:10.135Z,7.50
2024-03-14T11:31:10.104Z,7.40
2024-03-14T11:32:10.102Z,7.50
2024-03-14T11:33:10.188Z,7.00
2024-03-14T11:34:10.303Z,7.20
2024-03-14T11:35:10.063Z,7.40
2024-03-14T11:36:10.067Z,6.80
2024-03-14T11:37:10.044Z,7.00
2024-03-14T11:38:10.088Z,6.80
2024-03-14T11:39:10.032Z,6.70
2024-03-14T11:40:10.068Z,6.90
2024-03-14T11:41:10.759Z,6.70
2024-03-14T11:42:10.093Z,6.70
2024-03-14T11:43:10.004Z,6.60
2024-03-14T11:44:10.019Z,6.60
2024-03-14T11:45:41.913Z,6.50
2024-03-14T11:46:10.088Z,6.20
2024-03-14T11:47:09.976Z,6.40
2024-03-14T11:48:10.038Z,6.40
2024-03-14T11:49:09.952Z,6.20
2024-03-14T11:50:09.909Z,6.70
2024-03-14T11:51:09.962Z,6.60
2024-03-14T11:52:09.935Z,6.50
2024-03-14T11:53:09.889Z,6.90
2024-03-14T11:54:10.424Z,6.70
2024-03-14T11:55:09.943Z,6.70
2024-03-14T11:56:11.994Z,6.90
2024-03-14T11:57:10.138Z,6.70
2024-03-14T11:58:09.841Z,7.10
2024-03-14T11:59:09.997Z,6.90
2024-03-14T12:00:10.033Z,7.70
2024-03-14T12:01:10.454Z,6.90
2024-03-14T12:02:17.161Z,7.10
2024-03-14T12:03:10.941Z,6.90
2024-03-14T12:04:09.922Z,7.50
2024-03-14T12:05:09.764Z,6.80
2024-03-14T12:06:09.872Z,6.50
2024-03-14T12:07:09.753Z,7.00
2024-03-14T12:08:09.804Z,7.40
2024-03-14T12:09:09.770Z,7.10
2024-03-14T12:10:09.740Z,6.90
2024-03-14T12:11:09.780Z,6.40
2024-03-14T12:12:09.710Z,5.90
2024-03-14T12:13:09.683Z,6.50
2024-03-14T12:14:10.372Z,6.30
2024-03-14T12:15:09.749Z,6.30
2024-03-14T12:16:09.654Z,6.40
2024-03-14T12:17:09.646Z,6.80
2024-03-14T12:18:09.718Z,7.00
2024-03-14T12:19:09.622Z,7.10
2024-03-14T12:20:09.719Z,7.00
2024-03-14T12:21:09.642Z,6.60
2024-03-14T12:22:09.602Z,6.50
2024-03-14T12:23:09.588Z,6.30
2024-03-14T12:24:09.590Z,6.30
2024-03-14T12:25:09.597Z,6.90
2024-03-14T12:26:09.633Z,7.50
2024-03-14T12:27:09.591Z,7.00
2024-03-14T12:28:11.049Z,7.50
2024-03-14T12:29:09.642Z,7.30
2024-03-14T12:30:09.582Z,7.30
2024-03-14T12:31:09.502Z,7.70
2024-03-14T12:32:09.493Z,7.30
2024-03-14T12:33:09.535Z,7.20
2024-03-14T12:34:09.555Z,7.00
2024-03-14T12:35:09.473Z,6.50
2024-03-14T12:36:09.472Z,7.20
2024-03-14T12:37:09.451Z,7.30
2024-03-14T12:38:09.449Z,7.50
2024-03-14T12:39:09.473Z,7.00
2024-03-14T12:40:09.440Z,6.90
2024-03-14T12:41:09.406Z,7.10
2024-03-14T12:42:09.399Z,7.20
2024-03-14T12:43:09.400Z,6.80
2024-03-14T12:44:09.428Z,7.20
2024-03-14T12:45:10.396Z,7.10
2024-03-14T12:46:09.356Z,6.80
2024-03-14T12:47:09.406Z,6.80
2024-03-14T12:48:09.458Z,7.00
2024-03-14T12:49:09.348Z,7.20
2024-03-14T12:50:09.378Z,6.60
2024-03-14T12:51:09.356Z,6.50
2024-03-14T12:52:09.302Z,6.80
2024-03-14T12:53:09.311Z,6.60
2024-03-14T12:54:09.441Z,7.00
2024-03-14T12:55:09.267Z,7.00
2024-03-14T12:56:09.280Z,7.40